Time;durP1;ratioP1;P1;durP2;ratioP2;P2;SDS_P1;SDS_P2;PMS_P1;PMS_P2;Temp;Humidity;BMP_temperature;BMP_pressure;BME280_temperature;BME280_humidity;BME280_pressure;Samples;Min_cycle;Max_cycle;Signal;HPM_P1;HPM_P2
2021/05/01 00:01:33;;;;;;;32.30;22.58;;;7.60;99.90;;;;;;5091575;28;20217;-77
2021/05/01 00:04:00;;;;;;;30.05;23.42;;;7.50;99.90;;;;;;5099694;28;20191;-77
2021/05/01 00:06:28;;;;;;;31.58;23.17;;;7.60;99.90;;;;;;5104458;28;20223;-77
2021/05/01 00:08:56;;;;;;;34.83;23.63;;;7.60;99.90;;;;;;5105299;28;20210;-77
2021/05/01 00:11:25;;;;;;;32.60;25.50;;;7.60;99.90;;;;;;5091021;28;20210;-77
2021/05/01 00:13:55;;;;;;;33.22;22.98;;;7.70;99.90;;;;;;5096392;28;20194;-77
2021/05/01 00:16:22;;;;;;;32.35;24.25;;;7.60;99.90;;;;;;5099002;28;20255;-77
2021/05/01 00:18:49;;;;;;;33.17;23.85;;;7.70;99.90;;;;;;5094107;28;20634;-77
2021/05/01 00:21:15;;;;;;;34.65;24.05;;;7.60;99.90;;;;;;5093489;28;20206;-77
2021/05/01 00:23:42;;;;;;;27.73;22.80;;;7.70;99.90;;;;;;5086031;28;20203;-77
2021/05/01 00:26:11;;;;;;;33.33;24.63;;;7.90;99.90;;;;;;5079904;28;20209;-77
2021/05/01 00:28:37;;;;;;;32.20;23.08;;;8.10;99.90;;;;;;5094203;28;20732;-77
2021/05/01 00:31:03;;;;;;;34.35;23.83;;;8.10;99.90;;;;;;5088023;28;20215;-77
2021/05/01 00:33:30;;;;;;;31.90;24.48;;;8.30;99.90;;;;;;5096174;28;20616;-77
2021/05/01 00:35:56;;;;;;;38.88;23.40;;;8.20;99.80;;;;;;5090108;28;20203;-77
2021/05/01 00:38:23;;;;;;;29.60;22.50;;;8.40;99.60;;;;;;5091811;28;20226;-77
2021/05/01 00:40:49;;;;;;;32.15;23.42;;;8.40;99.40;;;;;;5089386;28;20699;-77
2021/05/01 00:43:16;;;;;;;31.02;22.65;;;8.30;99.60;;;;;;5095830;28;20286;-77
2021/05/01 00:45:43;;;;;;;33.60;22.35;;;8.30;99.90;;;;;;5093562;28;20202;-77
2021/05/01 00:48:09;;;;;;;33.47;23.58;;;8.10;99.90;;;;;;5098368;28;20380;-77
2021/05/01 00:50:35;;;;;;;31.95;24.85;;;7.90;99.90;;;;;;5107418;28;20208;-77
2021/05/01 00:53:03;;;;;;;36.63;24.85;;;7.80;99.90;;;;;;5095919;28;20226;-77
2021/05/01 00:55:31;;;;;;;30.65;22.30;;;7.80;99.90;;;;;;5101970;28;20319;-77
2021/05/01 00:57:58;;;;;;;35.92;25.42;;;7.90;99.90;;;;;;5098447;28;20746;-77
2021/05/01 01:00:40;;;;;;;33.90;24.35;;;8.00;99.90;;;;;;5096076;28;20281;-78
2021/05/01 01:03:08;;;;;;;34.85;23.13;;;8.20;99.90;;;;;;5077335;28;20691;-77
2021/05/01 01:05:34;;;;;;;35.92;24.42;;;8.30;99.90;;;;;;5074638;28;20646;-77
2021/05/01 01:08:02;;;;;;;34.42;24.42;;;8.20;99.90;;;;;;5075927;28;20191;-77
2021/05/01 01:10:30;;;;;;;32.20;23.70;;;8.20;99.90;;;;;;5097253;28;20336;-77
2021/05/01 01:12:57;;;;;;;35.78;25.25;;;8.10;99.90;;;;;;5087767;28;20202;-77
2021/05/01 01:15:28;;;;;;;31.67;24.48;;;8.20;99.90;;;;;;5093299;28;20199;-77
2021/05/01 01:17:56;;;;;;;33.95;25.08;;;8.10;99.90;;;;;;5080117;28;20195;-77
2021/05/01 01:20:25;;;;;;;37.40;26.77;;;8.10;99.90;;;;;;5106376;28;20221;-77
2021/05/01 01:22:53;;;;;;;33.05;24.02;;;8.10;99.90;;;;;;5103249;28;20275;-77
2021/05/01 01:25:21;;;;;;;36.10;25.05;;;8.10;99.90;;;;;;5091025;28;20199;-77
2021/05/01 01:27:48;;;;;;;39.28;28.35;;;8.00;99.90;;;;;;5094043;28;20201;-77
2021/05/01 01:30:19;;;;;;;34.05;26.10;;;8.20;99.90;;;;;;5096510;28;20626;-77
2021/05/01 01:32:47;;;;;;;35.67;23.15;;;8.10;99.90;;;;;;5079345;28;20208;-77
2021/05/01 01:35:17;;;;;;;35.97;26.25;;;8.10;99.90;;;;;;5090241;28;20194;-77
2021/05/01 01:37:46;;;;;;;35.70;25.90;;;8.00;99.90;;;;;;5092056;28;20198;-77
2021/05/01 01:40:17;;;;;;;35.40;23.27;;;7.90;99.90;;;;;;5090242;28;20283;-77
2021/05/01 01:42:44;;;;;;;33.72;24.75;;;7.90;99.90;;;;;;5076318;28;20707;-77
2021/05/01 01:45:13;;;;;;;40.53;24.85;;;7.90;99.90;;;;;;5102652;28;20206;-77
2021/05/01 01:47:41;;;;;;;37.55;27.27;;;8.10;99.90;;;;;;5084529;28;20741;-77
2021/05/01 01:50:12;;;;;;;35.97;22.92;;;8.20;99.90;;;;;;5084647;28;20224;-77
2021/05/01 01:52:41;;;;;;;33.45;22.35;;;8.20;99.90;;;;;;5090744;28;20194;-77
2021/05/01 01:55:11;;;;;;;34.72;23.30;;;8.30;99.90;;;;;;5104828;28;20289;-77
2021/05/01 01:57:39;;;;;;;35.95;24.90;;;8.20;99.90;;;;;;5076831;28;20229;-77
2021/05/01 02:00:09;;;;;;;32.85;24.20;;;8.20;99.90;;;;;;5102080;28;20194;-77
2021/05/01 02:02:37;;;;;;;34.15;23.23;;;8.10;99.90;;;;;;5088975;28;20224;-77
2021/05/01 02:05:05;;;;;;;31.35;25.27;;;8.10;99.90;;;;;;5103360;28;20198;-77
2021/05/01 02:07:35;;;;;;;34.17;24.58;;;8.30;99.90;;;;;;5103425;28;20201;-77
2021/05/01 02:10:04;;;;;;;36.30;26.00;;;8.50;99.90;;;;;;5100675;28;20596;-77
2021/05/01 02:12:36;;;;;;;35.15;24.25;;;8.40;99.80;;;;;;5092720;28;20199;-77
2021/05/01 02:15:09;;;;;;;37.63;26.48;;;8.50;99.70;;;;;;5096142;28;20622;-77
2021/05/01 02:17:36;;;;;;;34.55;26.42;;;8.40;99.70;;;;;;5089637;28;20286;-77
2021/05/01 02:20:06;;;;;;;31.85;23.42;;;8.30;99.90;;;;;;5095460;28;20194;-77
2021/05/01 02:22:32;;;;;;;33.38;24.77;;;8.30;99.90;;;;;;5080567;28;20204;-77
2021/05/01 02:24:59;;;;;;;34.83;25.73;;;8.20;99.90;;;;;;5103412;28;20210;-77
2021/05/01 02:27:25;;;;;;;35.33;24.27;;;8.20;99.90;;;;;;5090771;28;20205;-77
2021/05/01 02:29:52;;;;;;;39.50;24.50;;;8.30;99.90;;;;;;5089544;28;20645;-77
2021/05/01 02:32:19;;;;;;;32.70;23.17;;;8.40;99.90;;;;;;5095166;28;20202;-77
2021/05/01 02:34:46;;;;;;;31.08;23.27;;;8.40;99.90;;;;;;5094481;28;20203;-77
2021/05/01 02:37:12;;;;;;;33.33;24.17;;;8.50;99.90;;;;;;5098484;28;20191;-77
2021/05/01 02:39:38;;;;;;;37.70;24.90;;;8.40;99.90;;;;;;5080003;28;20207;-77
2021/05/01 02:42:06;;;;;;;35.45;24.25;;;8.30;99.90;;;;;;5077086;28;20286;-77
2021/05/01 02:44:33;;;;;;;37.58;25.10;;;8.20;99.90;;;;;;5103350;28;20198;-77
2021/05/01 02:47:00;;;;;;;34.40;26.20;;;8.20;99.90;;;;;;5085600;28;20195;-77
2021/05/01 02:49:27;;;;;;;34.38;25.50;;;8.30;99.90;;;;;;5105145;28;20221;-77
2021/05/01 02:51:53;;;;;;;37.97;24.92;;;8.40;99.90;;;;;;5080637;28;20195;-77
2021/05/01 02:54:20;;;;;;;39.95;26.48;;;8.40;99.90;;;;;;5097052;28;20547;-77
2021/05/01 02:56:46;;;;;;;38.08;25.92;;;8.20;99.90;;;;;;5072788;28;20211;-77
2021/05/01 02:59:12;;;;;;;37.30;26.17;;;8.20;99.90;;;;;;5089955;28;20206;-78
2021/05/01 03:01:39;;;;;;;38.05;26.10;;;8.20;99.90;;;;;;5098908;28;20199;-77
2021/05/01 03:04:06;;;;;;;36.45;25.92;;;8.30;99.90;;;;;;5090025;28;20194;-77
2021/05/01 03:06:33;;;;;;;38.25;27.73;;;8.30;99.90;;;;;;5091285;28;20205;-77
2021/05/01 03:09:00;;;;;;;38.42;25.02;;;8.30;99.90;;;;;;5085703;28;20652;-77
2021/05/01 03:11:26;;;;;;;36.78;24.58;;;8.40;99.90;;;;;;5087898;28;20203;-77
2021/05/01 03:13:53;;;;;;;39.22;26.85;;;8.40;99.90;;;;;;5081861;28;20196;-77
2021/05/01 03:16:19;;;;;;;40.00;26.35;;;8.50;99.90;;;;;;5072267;28;20205;-77
2021/05/01 03:18:46;;;;;;;30.27;23.45;;;8.50;99.90;;;;;;5088018;28;20187;-77
2021/05/01 03:21:13;;;;;;;36.50;25.25;;;8.70;99.60;;;;;;5083626;28;20195;-77
2021/05/01 03:23:40;;;;;;;35.92;25.95;;;8.70;99.20;;;;;;5103672;28;20199;-77
2021/05/01 03:26:07;;;;;;;35.67;24.88;;;8.40;99.20;;;;;;5091611;28;20219;-77
2021/05/01 03:28:33;;;;;;;39.63;26.65;;;8.40;99.40;;;;;;5088235;28;20236;-77
2021/05/01 03:31:00;;;;;;;39.38;25.60;;;8.50;99.10;;;;;;5079091;28;20277;-77
2021/05/01 03:33:28;;;;;;;34.60;25.20;;;8.60;98.80;;;;;;5083764;28;20203;-77
2021/05/01 03:35:56;;;;;;;36.97;25.35;;;8.70;98.60;;;;;;5100583;28;20206;-77
2021/05/01 03:38:23;;;;;;;32.55;22.73;;;8.70;98.30;;;;;;5095813;28;20197;-77
2021/05/01 03:40:52;;;;;;;35.20;24.90;;;8.50;98.30;;;;;;5102503;28;20203;-77
2021/05/01 03:43:20;;;;;;;42.63;27.40;;;8.20;99.10;;;;;;5080407;28;20846;-77
2021/05/01 03:45:46;;;;;;;37.05;25.02;;;7.90;99.90;;;;;;5094808;28;20687;-77
2021/05/01 03:48:14;;;;;;;36.72;26.20;;;8.10;99.90;;;;;;5082723;28;20206;-77
2021/05/01 03:50:41;;;;;;;34.53;23.50;;;8.40;99.90;;;;;;5094032;28;20202;-77
2021/05/01 03:53:08;;;;;;;35.15;24.15;;;8.50;99.80;;;;;;5092590;28;20206;-77
2021/05/01 03:55:35;;;;;;;32.50;23.35;;;8.40;99.70;;;;;;5072442;28;20200;-77
2021/05/01 03:58:03;;;;;;;37.85;26.30;;;8.30;99.40;;;;;;5081264;28;20213;-77
2021/05/01 04:00:30;;;;;;;36.40;26.52;;;8.40;99.50;;;;;;5097979;28;20278;-77
2021/05/01 04:02:57;;;;;;;39.88;26.45;;;8.00;99.30;;;;;;5083909;28;20205;-77
2021/05/01 04:05:24;;;;;;;38.13;25.45;;;7.50;99.90;;;;;;5087871;28;20722;-77
2021/05/01 04:07:51;;;;;;;38.10;27.67;;;7.20;99.90;;;;;;5088983;28;20282;-77
2021/05/01 04:10:19;;;;;;;44.17;29.42;;;7.00;99.90;;;;;;5088951;28;20470;-77
2021/05/01 04:12:45;;;;;;;42.05;27.95;;;7.50;99.90;;;;;;5088547;28;20272;-77
2021/05/01 04:15:13;;;;;;;39.67;27.92;;;7.80;99.90;;;;;;5088871;28;20202;-77
2021/05/01 04:17:40;;;;;;;42.33;27.25;;;8.00;99.90;;;;;;5089464;28;20336;-77
2021/05/01 04:20:08;;;;;;;41.13;25.50;;;8.20;99.90;;;;;;5086770;28;20197;-76
2021/05/01 04:22:34;;;;;;;33.63;25.33;;;8.40;99.90;;;;;;5088637;28;20242;-77
2021/05/01 04:25:01;;;;;;;39.15;24.17;;;8.40;99.70;;;;;;5088133;28;20280;-77
2021/05/01 04:27:29;;;;;;;39.33;25.25;;;8.60;99.40;;;;;;5086712;28;20199;-77
2021/05/01 04:29:55;;;;;;;39.03;26.35;;;8.70;98.80;;;;;;5091035;28;20272;-77
2021/05/01 04:32:23;;;;;;;38.03;25.85;;;8.80;98.30;;;;;;5088452;28;20242;-76
2021/05/01 04:34:49;;;;;;;40.80;27.58;;;8.80;98.10;;;;;;5089960;28;20203;-78
2021/05/01 04:37:15;;;;;;;39.55;26.17;;;8.80;97.90;;;;;;5088326;28;20199;-77
2021/05/01 04:39:42;;;;;;;39.47;27.63;;;8.80;98.30;;;;;;5086784;28;20644;-77
2021/05/01 04:42:08;;;;;;;43.38;29.15;;;8.90;98.40;;;;;;5090385;28;20634;-77
2021/05/01 04:44:35;;;;;;;37.88;25.38;;;8.90;98.30;;;;;;5088339;28;20198;-77
2021/05/01 04:47:02;;;;;;;38.47;26.85;;;8.80;97.50;;;;;;5087109;28;20204;-77
2021/05/01 04:49:29;;;;;;;34.05;25.08;;;8.80;97.30;;;;;;5080070;28;20222;-77
2021/05/01 04:51:55;;;;;;;42.17;27.98;;;8.90;97.40;;;;;;5083230;28;20293;-76
2021/05/01 04:54:22;;;;;;;36.75;26.48;;;8.90;97.20;;;;;;5089092;28;20218;-77
2021/05/01 04:56:48;;;;;;;36.22;25.00;;;9.00;97.10;;;;;;5085523;28;20218;-77
2021/05/01 04:59:15;;;;;;;40.13;25.33;;;9.00;96.90;;;;;;5090376;28;20198;-76
2021/05/01 05:01:41;;;;;;;41.25;26.70;;;9.00;96.90;;;;;;5090622;28;20209;-77
2021/05/01 05:04:07;;;;;;;40.85;26.52;;;9.10;97.10;;;;;;5077878;28;20202;-76
2021/05/01 05:06:35;;;;;;;44.13;27.23;;;9.10;96.90;;;;;;5076689;28;20210;-78
2021/05/01 05:09:02;;;;;;;40.33;25.10;;;9.10;96.80;;;;;;5094082;28;20238;-77
2021/05/01 05:11:29;;;;;;;40.45;26.15;;;9.10;97.00;;;;;;5069810;28;20217;-77
2021/05/01 05:13:55;;;;;;;40.30;26.52;;;9.10;96.80;;;;;;5087881;28;20271;-76
2021/05/01 05:16:21;;;;;;;44.10;28.15;;;9.10;96.50;;;;;;5090838;28;20239;-77
2021/05/01 05:18:48;;;;;;;39.55;26.88;;;9.20;96.70;;;;;;5096890;28;20226;-78
2021/05/01 05:21:14;;;;;;;37.38;25.88;;;9.20;96.60;;;;;;5092831;28;20225;-77
2021/05/01 05:23:41;;;;;;;39.40;25.15;;;9.20;96.30;;;;;;5080674;28;20264;-77
2021/05/01 05:26:08;;;;;;;31.73;23.80;;;9.20;96.40;;;;;;5089240;28;20289;-77
2021/05/01 05:28:34;;;;;;;43.15;27.13;;;9.20;96.60;;;;;;5071569;28;20282;-77
2021/05/01 05:31:00;;;;;;;35.78;25.50;;;9.20;96.30;;;;;;5091053;28;20302;-78
2021/05/01 05:33:27;;;;;;;36.30;26.30;;;9.20;96.20;;;;;;5087747;28;20199;-78
2021/05/01 05:35:53;;;;;;;35.10;25.48;;;9.30;96.40;;;;;;5090289;28;20194;-78
2021/05/01 05:38:19;;;;;;;38.60;25.85;;;9.30;96.30;;;;;;5092165;28;20222;-78
2021/05/01 05:40:47;;;;;;;36.35;24.85;;;9.40;96.30;;;;;;5105561;28;20225;-78
2021/05/01 05:43:13;;;;;;;36.20;25.15;;;9.30;96.20;;;;;;5093329;28;20205;-78
2021/05/01 05:45:41;;;;;;;35.38;23.17;;;9.40;96.10;;;;;;5090492;28;20195;-77
2021/05/01 05:48:08;;;;;;;35.15;24.08;;;9.50;95.80;;;;;;5098249;28;20675;-78
2021/05/01 05:50:34;;;;;;;31.05;22.60;;;9.50;95.40;;;;;;5094667;28;20297;-78
2021/05/01 05:53:01;;;;;;;34.85;23.48;;;9.40;95.10;;;;;;5088715;28;20202;-78
2021/05/01 05:55:27;;;;;;;31.65;22.60;;;9.40;94.80;;;;;;5090214;28;20632;-78
2021/05/01 05:57:56;;;;;;;33.78;23.63;;;9.40;94.80;;;;;;5093078;28;20565;-78
2021/05/01 06:00:24;;;;;;;32.70;24.08;;;9.40;94.70;;;;;;5108201;28;20201;-78
2021/05/01 06:02:52;;;;;;;32.60;22.70;;;9.40;94.60;;;;;;5095598;28;20249;-78
2021/05/01 06:05:23;;;;;;;33.17;22.67;;;9.50;94.90;;;;;;5102492;28;20277;-78
2021/05/01 06:07:53;;;;;;;33.30;22.77;;;9.50;95.10;;;;;;5099420;28;20213;-78
2021/05/01 06:10:19;;;;;;;26.77;20.23;;;9.60;95.10;;;;;;5098808;28;20242;-78
2021/05/01 06:12:46;;;;;;;26.20;17.90;;;9.50;94.10;;;;;;5109412;28;20225;-78
2021/05/01 06:15:15;;;;;;;20.77;16.50;;;9.60;93.80;;;;;;5103137;28;20226;-77
2021/05/01 06:17:42;;;;;;;24.13;18.20;;;9.60;93.30;;;;;;5093042;28;20195;-78
2021/05/01 06:20:11;;;;;;;23.05;17.48;;;9.50;93.20;;;;;;5091290;28;20237;-78
2021/05/01 06:22:38;;;;;;;24.30;18.00;;;9.60;93.50;;;;;;5098027;28;20840;-78
2021/05/01 06:25:07;;;;;;;25.60;19.60;;;9.60;93.30;;;;;;5086121;28;20209;-78
2021/05/01 06:27:34;;;;;;;24.48;18.55;;;9.70;93.30;;;;;;5097765;28;20253;-78
2021/05/01 06:30:01;;;;;;;26.92;18.42;;;9.60;93.30;;;;;;5097757;28;20238;-78
2021/05/01 06:32:29;;;;;;;36.10;22.00;;;9.60;93.70;;;;;;5095301;28;20229;-78
2021/05/01 06:34:57;;;;;;;29.52;21.52;;;9.60;94.60;;;;;;5099825;28;20229;-78
2021/05/01 06:37:25;;;;;;;28.63;20.75;;;9.20;94.40;;;;;;5106277;28;20206;-78
2021/05/01 06:39:55;;;;;;;41.65;22.70;;;8.60;96.30;;;;;;5102346;28;20360;-78
2021/05/01 06:42:26;;;;;;;29.65;22.05;;;8.70;97.00;;;;;;5094202;28;20206;-78
2021/05/01 06:44:59;;;;;;;30.45;23.50;;;9.10;96.80;;;;;;5097690;28;20273;-78
2021/05/01 06:47:28;;;;;;;29.23;22.85;;;9.30;96.00;;;;;;5095735;28;20214;-78
2021/05/01 06:50:04;;;;;;;31.38;21.30;;;9.30;95.50;;;;;;5095480;28;20796;-78
2021/05/01 06:52:33;;;;;;;27.60;21.52;;;8.90;95.10;;;;;;5092699;28;20238;-78
2021/05/01 06:55:01;;;;;;;24.60;20.20;;;8.90;95.60;;;;;;5091757;28;20199;-78
2021/05/01 06:57:30;;;;;;;27.35;20.48;;;8.90;96.10;;;;;;5100530;28;20202;-78
2021/05/01 06:59:58;;;;;;;30.58;23.13;;;8.50;96.50;;;;;;5090760;28;20238;-78
2021/05/01 07:02:27;;;;;;;31.33;22.85;;;8.50;97.20;;;;;;5097071;28;20210;-78
2021/05/01 07:04:55;;;;;;;31.60;23.08;;;8.80;96.70;;;;;;5095099;28;20202;-78
2021/05/01 07:07:23;;;;;;;30.05;21.92;;;8.80;97.20;;;;;;5096911;28;20203;-78
2021/05/01 07:09:50;;;;;;;31.45;22.63;;;9.00;97.00;;;;;;5094799;28;20253;-78
2021/05/01 07:12:19;;;;;;;34.40;23.50;;;9.20;96.50;;;;;;5108558;28;20202;-78
2021/05/01 07:14:45;;;;;;;33.00;22.70;;;9.30;95.60;;;;;;5099970;28;20664;-79
2021/05/01 07:17:14;;;;;;;32.65;25.63;;;9.40;95.50;;;;;;5089034;28;20814;-79
2021/05/01 07:19:41;;;;;;;30.73;23.30;;;9.60;95.60;;;;;;5091915;28;20648;-78
2021/05/01 07:22:09;;;;;;;34.07;25.03;;;9.60;94.80;;;;;;5093083;28;20737;-78
2021/05/01 07:24:35;;;;;;;30.67;24.67;;;9.70;94.60;;;;;;5090778;28;20632;-78
2021/05/01 07:27:02;;;;;;;32.00;23.67;;;9.70;94.90;;;;;;5086072;28;20289;-78
2021/05/01 07:29:33;;;;;;;30.27;22.23;;;9.80;94.90;;;;;;5076079;28;20223;-79
2021/05/01 07:32:03;;;;;;;32.40;22.05;;;9.80;94.40;;;;;;5102968;28;20237;-80
2021/05/01 07:34:30;;;;;;;31.08;22.23;;;9.70;94.60;;;;;;5100885;28;20250;-80
2021/05/01 07:37:01;;;;;;;28.48;22.70;;;9.70;94.80;;;;;;5101195;28;20733;-80
2021/05/01 07:39:31;;;;;;;30.02;23.02;;;9.50;95.40;;;;;;5078985;28;20226;-80
2021/05/01 07:42:00;;;;;;;32.22;24.38;;;9.40;95.20;;;;;;5088833;28;20230;-80
2021/05/01 07:44:27;;;;;;;27.00;20.80;;;9.00;95.00;;;;;;5093359;28;20272;-80
2021/05/01 07:46:54;;;;;;;27.45;21.08;;;8.90;95.30;;;;;;5093534;28;20202;-79
2021/05/01 07:49:21;;;;;;;29.30;20.65;;;9.20;95.80;;;;;;5093219;28;20912;-82
2021/05/01 07:51:47;;;;;;;27.67;20.77;;;9.50;95.40;;;;;;5089115;28;20202;-80
2021/05/01 07:54:14;;;;;;;29.20;19.80;;;9.60;95.20;;;;;;5101109;28;20339;-79
2021/05/01 07:56:41;;;;;;;28.10;20.88;;;9.90;94.60;;;;;;5109080;28;20198;-79
2021/05/01 07:59:08;;;;;;;29.85;21.08;;;9.90;93.30;;;;;;5101016;28;20244;-79
2021/05/01 08:01:34;;;;;;;28.42;21.30;;;10.00;92.60;;;;;;5091901;28;20331;-80
2021/05/01 08:04:01;;;;;;;29.98;21.67;;;9.90;93.70;;;;;;5092853;28;20234;-80
2021/05/01 08:06:28;;;;;;;32.95;21.45;;;9.30;93.90;;;;;;5111135;28;20251;-80
2021/05/01 08:08:54;;;;;;;29.63;22.05;;;9.10;94.70;;;;;;5104623;28;20201;-79
2021/05/01 08:11:21;;;;;;;29.42;21.55;;;8.60;96.20;;;;;;5099526;28;20237;-79
2021/05/01 08:13:50;;;;;;;31.00;22.60;;;8.60;97.50;;;;;;5093505;28;20601;-79
2021/05/01 08:16:17;;;;;;;31.42;22.63;;;8.90;97.00;;;;;;5080215;28;20230;-79
2021/05/01 08:18:43;;;;;;;29.65;21.23;;;8.90;96.60;;;;;;5091490;28;20206;-80
2021/05/01 08:21:10;;;;;;;26.55;20.73;;;8.80;96.30;;;;;;5111180;28;20825;-80
2021/05/01 08:23:36;;;;;;;33.55;23.70;;;8.90;96.60;;;;;;5099597;28;20214;-79
2021/05/01 08:26:04;;;;;;;27.67;21.48;;;9.30;96.80;;;;;;5089896;28;20232;-80
2021/05/01 08:28:31;;;;;;;28.42;21.45;;;9.40;96.00;;;;;;5084994;28;20675;-79
2021/05/01 08:30:58;;;;;;;28.42;21.85;;;9.40;95.40;;;;;;5091174;28;20272;-80
2021/05/01 08:33:25;;;;;;;29.65;24.67;;;9.00;95.20;;;;;;5094195;28;20198;-80
2021/05/01 08:35:52;;;;;;;29.05;22.60;;;9.20;95.70;;;;;;5107085;28;20730;-80
2021/05/01 08:38:20;;;;;;;28.05;21.27;;;9.50;95.00;;;;;;5092394;28;20281;-80
2021/05/01 08:40:48;;;;;;;27.17;19.98;;;9.80;94.20;;;;;;5109267;28;20751;-80
2021/05/01 08:43:14;;;;;;;32.88;20.90;;;9.90;94.10;;;;;;5109912;28;20205;-80
2021/05/01 08:45:44;;;;;;;23.67;18.52;;;10.10;93.70;;;;;;5111297;28;20607;-80
2021/05/01 08:48:11;;;;;;;27.52;20.20;;;9.90;93.60;;;;;;5110624;28;20565;-80
2021/05/01 08:50:47;;;;;;;23.95;20.13;;;9.50;93.80;;;;;;5110751;28;20217;-80
2021/05/01 08:53:13;;;;;;;25.65;20.00;;;9.20;94.90;;;;;;5111160;28;20233;-79
2021/05/01 08:55:41;;;;;;;29.98;20.30;;;9.50;95.40;;;;;;5111073;28;20259;-80
2021/05/01 08:58:09;;;;;;;30.33;20.48;;;9.40;94.80;;;;;;5107237;28;20217;-80
2021/05/01 09:00:39;;;;;;;24.95;18.80;;;9.20;94.90;;;;;;5088763;28;20195;-80
2021/05/01 09:03:08;;;;;;;25.42;20.70;;;9.60;95.70;;;;;;5090481;28;20210;-80
2021/05/01 09:05:37;;;;;;;26.48;18.85;;;9.90;94.70;;;;;;5090578;28;20202;-80
2021/05/01 09:08:05;;;;;;;24.08;17.00;;;9.70;93.90;;;;;;5090326;28;20213;-80
2021/05/01 09:10:41;;;;;;;22.92;17.58;;;9.50;94.10;;;;;;5089453;28;20226;-79
2021/05/01 09:13:13;;;;;;;27.15;19.33;;;9.80;94.50;;;;;;5090230;28;20253;-80
2021/05/01 09:15:42;;;;;;;28.05;18.50;;;10.00;93.30;;;;;;5090310;28;20202;-80
2021/05/01 09:18:09;;;;;;;23.85;17.70;;;10.40;93.40;;;;;;5090468;28;20611;-78
2021/05/01 09:20:36;;;;;;;26.45;20.45;;;10.90;92.10;;;;;;5089875;28;20194;-78
2021/05/01 09:23:05;;;;;;;23.10;17.60;;;10.60;91.40;;;;;;5090628;28;20203;-79
2021/05/01 09:25:33;;;;;;;21.38;16.77;;;10.90;91.00;;;;;;5090161;28;20256;-78
2021/05/01 09:28:06;;;;;;;23.77;19.43;;;11.00;90.40;;;;;;5091081;28;20563;-78
2021/05/01 09:30:34;;;;;;;23.77;17.67;;;11.20;89.50;;;;;;5089769;28;20647;-78
2021/05/01 09:33:29;;;;;;;26.70;19.47;;;11.20;89.80;;;;;;5090629;28;20611;-79
2021/05/01 09:36:02;;;;;;;24.63;20.73;;;10.90;89.80;;;;;;5091604;28;20635;-78
2021/05/01 09:38:30;;;;;;;21.00;15.73;;;11.10;90.60;;;;;;5099839;28;20205;-79
2021/05/01 09:40:57;;;;;;;22.90;18.13;;;11.30;89.20;;;;;;5093462;28;21204;-78
2021/05/01 09:43:24;;;;;;;21.53;17.93;;;11.40;86.90;;;;;;5093924;28;20627;-78
2021/05/01 09:45:50;;;;;;;25.70;19.20;;;11.60;86.30;;;;;;5092828;28;20674;-79
2021/05/01 09:48:18;;;;;;;23.83;19.07;;;11.40;89.30;;;;;;5108200;28;20616;-79
2021/05/01 09:50:47;;;;;;;23.30;18.10;;;11.40;88.90;;;;;;5092931;28;20660;-78
2021/05/01 09:53:17;;;;;;;23.50;18.87;;;11.30;88.70;;;;;;5097735;28;20617;-77
2021/05/01 09:55:53;;;;;;;22.03;18.00;;;11.10;89.00;;;;;;5093171;28;20616;-78
2021/05/01 09:58:22;;;;;;;24.43;19.20;;;11.20;89.70;;;;;;5087164;28;20616;-80
2021/05/01 10:00:52;;;;;;;23.70;17.77;;;10.90;90.50;;;;;;5091411;28;20614;-80
2021/05/01 10:03:20;;;;;;;20.67;15.83;;;11.40;90.70;;;;;;5098190;28;20610;-77
2021/05/01 10:05:47;;;;;;;19.40;15.50;;;11.80;88.70;;;;;;5081848;28;20621;-77
2021/05/01 10:08:17;;;;;;;24.40;18.27;;;11.20;87.20;;;;;;5090752;28;21028;-78
2021/05/01 10:10:45;;;;;;;22.20;18.13;;;11.50;89.00;;;;;;5092411;28;21184;-78
2021/05/01 10:13:14;;;;;;;22.70;18.27;;;11.60;87.00;;;;;;5099523;28;21208;-78
2021/05/01 10:15:42;;;;;;;24.37;17.10;;;11.80;88.80;;;;;;5111345;28;20615;-78
2021/05/01 10:18:09;;;;;;;23.70;18.47;;;11.70;86.40;;;;;;5090100;28;21269;-78
2021/05/01 10:20:40;;;;;;;22.50;17.97;;;11.60;87.00;;;;;;5093326;28;20623;-78
2021/05/01 10:23:09;;;;;;;21.70;17.43;;;11.90;86.10;;;;;;5095542;28;21001;-78
2021/05/01 10:25:38;;;;;;;22.20;17.43;;;11.40;87.80;;;;;;5091007;28;20628;-78
2021/05/01 10:28:10;;;;;;;21.90;17.57;;;11.30;86.50;;;;;;5109068;28;20658;-78
2021/05/01 10:30:42;;;;;;;26.10;19.80;;;11.20;86.60;;;;;;5087614;28;20653;-79
2021/05/01 10:33:14;;;;;;;22.20;17.87;;;11.20;86.70;;;;;;5087712;28;20616;-78
2021/05/01 10:35:50;;;;;;;21.07;17.77;;;11.70;88.20;;;;;;5107819;28;20718;-79
2021/05/01 10:38:18;;;;;;;22.10;17.97;;;11.00;85.20;;;;;;5104800;28;20657;-78
2021/05/01 10:40:49;;;;;;;21.07;18.20;;;10.90;88.20;;;;;;5112225;28;20714;-78
2021/05/01 10:43:19;;;;;;;22.10;18.57;;;11.20;85.80;;;;;;5101735;28;20624;-78
2021/05/01 10:45:54;;;;;;;27.67;19.70;;;11.80;85.80;;;;;;5073453;28;20682;-79
2021/05/01 10:48:23;;;;;;;21.97;17.20;;;11.70;84.20;;;;;;5075715;28;21082;-78
2021/05/01 10:51:05;;;;;;;25.47;19.60;;;12.00;84.60;;;;;;5094490;28;20640;-78
2021/05/01 10:53:33;;;;;;;21.50;18.77;;;12.30;83.30;;;;;;5101380;28;20963;-78
2021/05/01 10:56:01;;;;;;;28.90;21.47;;;12.10;83.80;;;;;;5093584;28;21248;-78
2021/05/01 10:58:42;;;;;;;25.37;18.23;;;12.40;83.50;;;;;;5097216;28;20619;-78
2021/05/01 11:01:13;;;;;;;24.40;20.60;;;12.40;83.30;;;;;;5092723;28;20943;-79
2021/05/01 11:03:44;;;;;;;24.00;19.30;;;12.30;82.10;;;;;;5099528;28;20624;-78
2021/05/01 11:06:21;;;;;;;23.73;19.20;;;12.00;83.90;;;;;;5093046;28;20630;-79
2021/05/01 11:08:56;;;;;;;23.50;19.10;;;12.30;82.30;;;;;;5101004;28;20629;-79
2021/05/01 11:11:29;;;;;;;21.10;17.30;;;12.40;81.80;;;;;;5092216;28;20610;-78
2021/05/01 11:14:00;;;;;;;25.50;19.20;;;12.10;81.00;;;;;;5099411;28;20643;-78
2021/05/01 11:16:36;;;;;;;22.87;18.90;;;11.90;83.20;;;;;;5095617;28;20623;-78
2021/05/01 11:19:05;;;;;;;22.50;19.20;;;12.10;83.00;;;;;;5103833;28;20625;-78
2021/05/01 11:21:32;;;;;;;25.60;21.27;;;12.30;83.10;;;;;;5108242;28;20729;-78
2021/05/01 11:24:01;;;;;;;23.50;20.87;;;12.60;83.10;;;;;;5105749;28;20616;-78
2021/05/01 11:26:29;;;;;;;29.97;21.43;;;12.70;81.20;;;;;;5095168;28;20619;-79
2021/05/01 11:28:57;;;;;;;26.17;20.67;;;12.90;81.30;;;;;;5104866;28;20727;-78
2021/05/01 11:31:24;;;;;;;27.23;21.70;;;13.10;79.60;;;;;;5093680;28;20668;-79
2021/05/01 11:33:50;;;;;;;27.40;22.00;;;13.10;80.60;;;;;;5097537;28;20608;-78
2021/05/01 11:36:20;;;;;;;27.93;22.27;;;13.10;80.60;;;;;;5111112;28;21191;-78
2021/05/01 11:38:49;;;;;;;28.27;23.13;;;12.70;80.00;;;;;;5092951;28;20621;-79
2021/05/01 11:41:16;;;;;;;29.60;22.77;;;11.70;82.90;;;;;;5089756;28;20961;-79
2021/05/01 11:43:46;;;;;;;33.40;21.73;;;11.40;85.20;;;;;;5095941;28;20612;-80
2021/05/01 11:46:23;;;;;;;29.03;22.70;;;11.70;85.20;;;;;;5091184;28;20612;-79
2021/05/01 11:49:01;;;;;;;33.80;23.30;;;11.60;85.80;;;;;;5084115;28;20619;-79
2021/05/01 11:51:45;;;;;;;26.10;22.40;;;11.80;87.30;;;;;;5089295;28;21165;-80
2021/05/01 11:54:23;;;;;;;29.03;21.70;;;11.60;85.10;;;;;;5092799;28;20618;-80
2021/05/01 11:56:56;;;;;;;28.57;21.63;;;11.50;88.10;;;;;;5093329;28;20608;-80
2021/05/01 11:59:27;;;;;;;26.67;20.63;;;11.40;87.30;;;;;;5099518;28;20692;-79
2021/05/01 12:02:01;;;;;;;27.33;21.53;;;11.20;87.20;;;;;;5099963;28;20625;-79
2021/05/01 12:05:01;;;;;;;32.07;22.80;;;10.90;88.80;;;;;;5089677;28;21170;-80
2021/05/01 12:07:44;;;;;;;27.57;21.00;;;10.90;90.10;;;;;;5061626;28;20623;-80
2021/05/01 12:10:13;;;;;;;29.83;23.00;;;11.20;89.80;;;;;;5096270;28;21021;-79
2021/05/01 12:12:42;;;;;;;24.97;21.30;;;11.10;89.20;;;;;;5099161;28;20604;-80
2021/05/01 12:15:12;;;;;;;26.50;21.07;;;11.20;90.30;;;;;;5081831;28;20715;-80
2021/05/01 12:17:41;;;;;;;28.20;21.87;;;11.70;89.70;;;;;;5095218;28;20620;-80
2021/05/01 12:20:12;;;;;;;28.00;21.87;;;12.10;88.10;;;;;;5109326;28;20604;-80
2021/05/01 12:22:39;;;;;;;25.87;20.50;;;12.00;83.30;;;;;;5094371;28;20622;-80
2021/05/01 12:25:40;;;;;;;25.70;21.40;;;11.40;85.50;;;;;;5103146;28;20628;-80
2021/05/01 12:28:07;;;;;;;25.70;20.10;;;11.70;88.00;;;;;;5091812;28;20622;-80
2021/05/01 12:30:51;;;;;;;24.67;20.93;;;12.00;86.70;;;;;;5094333;28;20698;-80
2021/05/01 12:33:56;;;;;;;31.37;21.80;;;11.50;87.20;;;;;;5101743;28;20658;-80
2021/05/01 12:36:28;;;;;;;27.00;21.97;;;11.20;88.10;;;;;;5094087;28;20707;-80
2021/05/01 12:38:57;;;;;;;26.90;21.17;;;11.40;88.30;;;;;;5104291;28;20632;-80
2021/05/01 12:41:29;;;;;;;26.13;20.23;;;11.50;88.60;;;;;;5090662;28;20616;-80